sensor_id;sensor_type;location;lat;lon;timestamp;temperature;humidity
70269;DHT22;58514;48.398;-4.274;2022-12-11T00:00:40;3.80;99.90
70269;DHT22;58514;48.398;-4.274;2022-12-11T00:03:06;3.80;99.90
70269;DHT22;58514;48.398;-4.274;2022-12-11T00:05:31;3.90;99.90
70269;DHT22;58514;48.398;-4.274;2022-12-11T00:07:57;3.90;99.90
70269;DHT22;58514;48.398;-4.274;2022-12-11T00:10:23;3.90;99.90
70269;DHT22;58514;48.398;-4.274;2022-12-11T00:12:49;3.90;99.90
70269;DHT22;58514;48.398;-4.274;2022-12-11T00:15:14;3.90;99.90
70269;DHT22;58514;48.398;-4.274;2022-12-11T00:17:40;3.90;99.90
70269;DHT22;58514;48.398;-4.274;2022-12-11T00:20:05;3.90;99.90
70269;DHT22;58514;48.398;-4.274;2022-12-11T00:22:32;3.90;99.90
70269;DHT22;58514;48.398;-4.274;2022-12-11T00:24:57;3.90;99.90
70269;DHT22;58514;48.398;-4.274;2022-12-11T00:27:23;4.00;99.90
70269;DHT22;58514;48.398;-4.274;2022-12-11T00:29:49;4.00;99.90
70269;DHT22;58514;48.398;-4.274;2022-12-11T00:32:14;4.00;99.90
70269;DHT22;58514;48.398;-4.274;2022-12-11T00:34:40;4.00;99.90
70269;DHT22;58514;48.398;-4.274;2022-12-11T00:37:05;4.10;99.90
70269;DHT22;58514;48.398;-4.274;2022-12-11T00:39:31;4.10;99.90
70269;DHT22;58514;48.398;-4.274;2022-12-11T00:41:57;4.10;99.90
70269;DHT22;58514;48.398;-4.274;2022-12-11T00:44:22;4.20;99.90
70269;DHT22;58514;48.398;-4.274;2022-12-11T00:46:48;4.20;99.90
70269;DHT22;58514;48.398;-4.274;2022-12-11T00:49:14;4.20;99.90
70269;DHT22;58514;48.398;-4.274;2022-12-11T00:51:39;4.20;99.90
70269;DHT22;58514;48.398;-4.274;2022-12-11T00:54:05;4.30;99.90
70269;DHT22;58514;48.398;-4.274;2022-12-11T00:56:31;4.30;99.90
70269;DHT22;58514;48.398;-4.274;2022-12-11T00:58:56;4.30;99.90
70269;DHT22;58514;48.398;-4.274;2022-12-11T01:01:22;4.40;99.90
70269;DHT22;58514;48.398;-4.274;2022-12-11T01:03:48;4.30;99.90
70269;DHT22;58514;48.398;-4.274;2022-12-11T01:06:15;4.40;99.90
70269;DHT22;58514;48.398;-4.274;2022-12-11T01:08:41;4.40;99.90
70269;DHT22;58514;48.398;-4.274;2022-12-11T01:11:08;4.40;99.90
70269;DHT22;58514;48.398;-4.274;2022-12-11T01:13:34;4.40;99.90
70269;DHT22;58514;48.398;-4.274;2022-12-11T01:16:04;4.40;99.90
70269;DHT22;58514;48.398;-4.274;2022-12-11T01:18:30;4.40;99.90
70269;DHT22;58514;48.398;-4.274;2022-12-11T01:20:55;4.40;99.90
70269;DHT22;58514;48.398;-4.274;2022-12-11T01:23:21;4.40;99.90
70269;DHT22;58514;48.398;-4.274;2022-12-11T01:25:46;4.50;99.90
70269;DHT22;58514;48.398;-4.274;2022-12-11T01:28:12;4.50;99.90
70269;DHT22;58514;48.398;-4.274;2022-12-11T01:30:39;4.50;99.90
70269;DHT22;58514;48.398;-4.274;2022-12-11T01:33:05;4.50;99.90
70269;DHT22;58514;48.398;-4.274;2022-12-11T01:35:32;4.50;99.90
70269;DHT22;58514;48.398;-4.274;2022-12-11T01:37:58;4.60;99.90
70269;DHT22;58514;48.398;-4.274;2022-12-11T01:40:23;4.60;99.90
70269;DHT22;58514;48.398;-4.274;2022-12-11T01:42:49;4.70;99.90
70269;DHT22;58514;48.398;-4.274;2022-12-11T01:47:50;4.80;99.90
70269;DHT22;58514;48.398;-4.274;2022-12-11T01:50:16;4.80;99.90
70269;DHT22;58514;48.398;-4.274;2022-12-11T01:52:42;4.90;99.90
70269;DHT22;58514;48.398;-4.274;2022-12-11T01:55:09;4.90;99.90
70269;DHT22;58514;48.398;-4.274;2022-12-11T01:57:38;5.00;99.90
70269;DHT22;58514;48.398;-4.274;2022-12-11T02:00:04;5.00;99.90
70269;DHT22;58514;48.398;-4.274;2022-12-11T02:02:30;5.00;99.90
70269;DHT22;58514;48.398;-4.274;2022-12-11T02:04:58;5.00;99.90
70269;DHT22;58514;48.398;-4.274;2022-12-11T02:07:23;5.10;99.90
70269;DHT22;58514;48.398;-4.274;2022-12-11T02:09:49;5.10;99.90
70269;DHT22;58514;48.398;-4.274;2022-12-11T02:12:32;5.10;99.90
70269;DHT22;58514;48.398;-4.274;2022-12-11T02:20:42;5.00;99.90
70269;DHT22;58514;48.398;-4.274;2022-12-11T02:23:11;5.00;99.90
70269;DHT22;58514;48.398;-4.274;2022-12-11T02:25:46;5.00;99.90
70269;DHT22;58514;48.398;-4.274;2022-12-11T02:30:51;4.90;99.90
70269;DHT22;58514;48.398;-4.274;2022-12-11T02:33:20;4.80;99.90
70269;DHT22;58514;48.398;-4.274;2022-12-11T02:35:47;4.80;99.90
70269;DHT22;58514;48.398;-4.274;2022-12-11T02:38:18;4.80;99.90
70269;DHT22;58514;48.398;-4.274;2022-12-11T02:40:45;4.80;99.90
70269;DHT22;58514;48.398;-4.274;2022-12-11T02:43:13;4.80;99.90
70269;DHT22;58514;48.398;-4.274;2022-12-11T02:45:40;4.80;99.90
70269;DHT22;58514;48.398;-4.274;2022-12-11T02:48:06;4.80;99.90
70269;DHT22;58514;48.398;-4.274;2022-12-11T02:50:35;4.80;99.90
70269;DHT22;58514;48.398;-4.274;2022-12-11T02:53:02;4.70;99.90
70269;DHT22;58514;48.398;-4.274;2022-12-11T02:55:28;4.80;99.90
70269;DHT22;58514;48.398;-4.274;2022-12-11T02:57:59;4.70;99.90
70269;DHT22;58514;48.398;-4.274;2022-12-11T03:00:26;4.70;99.90
70269;DHT22;58514;48.398;-4.274;2022-12-11T03:02:52;4.70;99.90
70269;DHT22;58514;48.398;-4.274;2022-12-11T03:05:17;4.70;99.90
70269;DHT22;58514;48.398;-4.274;2022-12-11T03:07:43;4.60;99.90
70269;DHT22;58514;48.398;-4.274;2022-12-11T03:10:10;4.60;99.90
70269;DHT22;58514;48.398;-4.274;2022-12-11T03:12:38;4.50;99.90
70269;DHT22;58514;48.398;-4.274;2022-12-11T03:15:05;4.50;99.90
70269;DHT22;58514;48.398;-4.274;2022-12-11T03:17:47;4.40;99.90
70269;DHT22;58514;48.398;-4.274;2022-12-11T03:20:21;4.40;99.90
70269;DHT22;58514;48.398;-4.274;2022-12-11T03:22:56;4.30;99.90
70269;DHT22;58514;48.398;-4.274;2022-12-11T03:25:29;4.20;99.90
70269;DHT22;58514;48.398;-4.274;2022-12-11T03:27:58;4.20;99.90
70269;DHT22;58514;48.398;-4.274;2022-12-11T03:30:27;4.10;99.90
70269;DHT22;58514;48.398;-4.274;2022-12-11T03:33:02;4.10;99.90
70269;DHT22;58514;48.398;-4.274;2022-12-11T03:35:32;4.10;99.90
70269;DHT22;58514;48.398;-4.274;2022-12-11T03:37:59;4.00;99.90
70269;DHT22;58514;48.398;-4.274;2022-12-11T03:40:26;3.90;99.90
70269;DHT22;58514;48.398;-4.274;2022-12-11T03:42:52;3.90;99.90
70269;DHT22;58514;48.398;-4.274;2022-12-11T03:45:20;3.80;99.90
70269;DHT22;58514;48.398;-4.274;2022-12-11T03:47:46;3.80;99.90
70269;DHT22;58514;48.398;-4.274;2022-12-11T03:50:12;3.70;99.90
70269;DHT22;58514;48.398;-4.274;2022-12-11T03:52:40;3.70;99.90
70269;DHT22;58514;48.398;-4.274;2022-12-11T03:55:06;3.60;99.90
70269;DHT22;58514;48.398;-4.274;2022-12-11T03:57:34;3.60;99.90
70269;DHT22;58514;48.398;-4.274;2022-12-11T04:00:00;3.50;99.90
70269;DHT22;58514;48.398;-4.274;2022-12-11T04:02:29;3.50;99.90
70269;DHT22;58514;48.398;-4.274;2022-12-11T04:04:55;3.40;99.90
70269;DHT22;58514;48.398;-4.274;2022-12-11T04:07:20;3.50;99.90
70269;DHT22;58514;48.398;-4.274;2022-12-11T04:09:46;3.40;99.90
70269;DHT22;58514;48.398;-4.274;2022-12-11T04:12:12;3.40;99.90
70269;DHT22;58514;48.398;-4.274;2022-12-11T04:14:37;3.30;99.90
70269;DHT22;58514;48.398;-4.274;2022-12-11T04:17:21;3.30;99.90
70269;DHT22;58514;48.398;-4.274;2022-12-11T04:20:06;3.30;99.90
70269;DHT22;58514;48.398;-4.274;2022-12-11T04:22:50;3.20;99.90
70269;DHT22;58514;48.398;-4.274;2022-12-11T04:25:35;3.30;99.90
70269;DHT22;58514;48.398;-4.274;2022-12-11T04:28:00;3.20;99.90
70269;DHT22;58514;48.398;-4.274;2022-12-11T04:30:26;3.20;99.90
70269;DHT22;58514;48.398;-4.274;2022-12-11T04:32:52;3.20;99.90
70269;DHT22;58514;48.398;-4.274;2022-12-11T04:35:17;3.20;99.90
70269;DHT22;58514;48.398;-4.274;2022-12-11T04:37:43;3.20;99.90
70269;DHT22;58514;48.398;-4.274;2022-12-11T04:40:10;3.20;99.90
70269;DHT22;58514;48.398;-4.274;2022-12-11T04:42:36;3.20;99.90
70269;DHT22;58514;48.398;-4.274;2022-12-11T04:45:01;3.20;99.90
70269;DHT22;58514;48.398;-4.274;2022-12-11T04:47:27;3.10;99.90
70269;DHT22;58514;48.398;-4.274;2022-12-11T04:49:52;3.10;99.90
70269;DHT22;58514;48.398;-4.274;2022-12-11T04:52:18;3.10;99.90
70269;DHT22;58514;48.398;-4.274;2022-12-11T04:54:44;3.10;99.90
70269;DHT22;58514;48.398;-4.274;2022-12-11T04:57:09;3.10;99.90
70269;DHT22;58514;48.398;-4.274;2022-12-11T04:59:35;3.20;99.90
70269;DHT22;58514;48.398;-4.274;2022-12-11T05:02:01;3.20;99.90
70269;DHT22;58514;48.398;-4.274;2022-12-11T05:04:30;3.20;99.90
70269;DHT22;58514;48.398;-4.274;2022-12-11T05:06:57;3.20;99.90
70269;DHT22;58514;48.398;-4.274;2022-12-11T05:09:23;3.20;99.90
70269;DHT22;58514;48.398;-4.274;2022-12-11T05:11:49;3.20;99.90
70269;DHT22;58514;48.398;-4.274;2022-12-11T05:14:14;3.20;99.90
70269;DHT22;58514;48.398;-4.274;2022-12-11T05:16:40;3.10;99.90
70269;DHT22;58514;48.398;-4.274;2022-12-11T05:19:05;3.10;99.90
70269;DHT22;58514;48.398;-4.274;2022-12-11T05:21:31;3.00;99.90
70269;DHT22;58514;48.398;-4.274;2022-12-11T05:23:56;3.00;99.90
70269;DHT22;58514;48.398;-4.274;2022-12-11T05:26:22;3.00;99.90
70269;DHT22;58514;48.398;-4.274;2022-12-11T05:28:51;3.00;99.90
70269;DHT22;58514;48.398;-4.274;2022-12-11T05:31:22;2.90;99.90
70269;DHT22;58514;48.398;-4.274;2022-12-11T05:33:48;2.90;99.90
70269;DHT22;58514;48.398;-4.274;2022-12-11T05:36:15;2.80;99.90
70269;DHT22;58514;48.398;-4.274;2022-12-11T05:38:41;2.90;99.90
70269;DHT22;58514;48.398;-4.274;2022-12-11T05:41:07;2.80;99.90
70269;DHT22;58514;48.398;-4.274;2022-12-11T05:43:33;2.80;99.90
70269;DHT22;58514;48.398;-4.274;2022-12-11T05:46:06;2.80;99.90
70269;DHT22;58514;48.398;-4.274;2022-12-11T05:48:32;2.80;99.90
70269;DHT22;58514;48.398;-4.274;2022-12-11T05:50:58;2.80;99.90
70269;DHT22;58514;48.398;-4.274;2022-12-11T05:53:24;2.80;99.90
70269;DHT22;58514;48.398;-4.274;2022-12-11T05:55:50;2.70;99.90
70269;DHT22;58514;48.398;-4.274;2022-12-11T05:58:16;2.70;99.90
70269;DHT22;58514;48.398;-4.274;2022-12-11T06:00:42;2.70;99.90
70269;DHT22;58514;48.398;-4.274;2022-12-11T06:03:07;2.70;99.90
70269;DHT22;58514;48.398;-4.274;2022-12-11T06:05:40;2.70;99.90
70269;DHT22;58514;48.398;-4.274;2022-12-11T06:08:06;2.70;99.90
70269;DHT22;58514;48.398;-4.274;2022-12-11T06:10:31;2.60;99.90
70269;DHT22;58514;48.398;-4.274;2022-12-11T06:12:57;2.60;99.90
70269;DHT22;58514;48.398;-4.274;2022-12-11T06:15:23;2.60;99.90
70269;DHT22;58514;48.398;-4.274;2022-12-11T06:17:48;2.50;99.90
70269;DHT22;58514;48.398;-4.274;2022-12-11T06:20:14;2.50;99.90
70269;DHT22;58514;48.398;-4.274;2022-12-11T06:22:39;2.50;99.90
70269;DHT22;58514;48.398;-4.274;2022-12-11T06:25:05;2.40;99.90
70269;DHT22;58514;48.398;-4.274;2022-12-11T06:27:30;2.40;99.90
70269;DHT22;58514;48.398;-4.274;2022-12-11T06:29:56;2.40;99.90
70269;DHT22;58514;48.398;-4.274;2022-12-11T06:32:21;2.30;99.90
70269;DHT22;58514;48.398;-4.274;2022-12-11T06:34:47;2.30;99.90
70269;DHT22;58514;48.398;-4.274;2022-12-11T06:37:13;2.30;99.90
70269;DHT22;58514;48.398;-4.274;2022-12-11T06:39:38;2.30;99.90
70269;DHT22;58514;48.398;-4.274;2022-12-11T06:42:04;2.30;99.90
70269;DHT22;58514;48.398;-4.274;2022-12-11T06:44:29;2.30;99.90
70269;DHT22;58514;48.398;-4.274;2022-12-11T06:46:55;2.30;99.90
70269;DHT22;58514;48.398;-4.274;2022-12-11T06:49:21;2.30;99.90
70269;DHT22;58514;48.398;-4.274;2022-12-11T06:51:46;2.30;99.90
70269;DHT22;58514;48.398;-4.274;2022-12-11T06:54:12;2.20;99.90
70269;DHT22;58514;48.398;-4.274;2022-12-11T06:56:37;2.20;99.90
70269;DHT22;58514;48.398;-4.274;2022-12-11T06:59:03;2.20;99.90
70269;DHT22;58514;48.398;-4.274;2022-12-11T07:01:30;2.10;99.90
70269;DHT22;58514;48.398;-4.274;2022-12-11T07:03:56;2.10;99.90
70269;DHT22;58514;48.398;-4.274;2022-12-11T07:06:23;2.10;99.90
70269;DHT22;58514;48.398;-4.274;2022-12-11T07:08:49;2.10;99.90
70269;DHT22;58514;48.398;-4.274;2022-12-11T07:11:14;2.00;99.90
70269;DHT22;58514;48.398;-4.274;2022-12-11T07:13:40;2.00;99.90
70269;DHT22;58514;48.398;-4.274;2022-12-11T07:16:06;2.00;99.90
70269;DHT22;58514;48.398;-4.274;2022-12-11T07:18:35;2.00;99.90
70269;DHT22;58514;48.398;-4.274;2022-12-11T07:21:02;2.00;99.90
70269;DHT22;58514;48.398;-4.274;2022-12-11T07:23:28;2.00;99.90
70269;DHT22;58514;48.398;-4.274;2022-12-11T07:25:54;2.00;99.90
70269;DHT22;58514;48.398;-4.274;2022-12-11T07:28:19;2.00;99.90
70269;DHT22;58514;48.398;-4.274;2022-12-11T07:30:45;2.00;99.90
70269;DHT22;58514;48.398;-4.274;2022-12-11T07:33:11;2.00;99.90
70269;DHT22;58514;48.398;-4.274;2022-12-11T07:35:36;2.00;99.90
70269;DHT22;58514;48.398;-4.274;2022-12-11T07:38:02;2.00;99.90
70269;DHT22;58514;48.398;-4.274;2022-12-11T07:40:27;1.90;99.90
70269;DHT22;58514;48.398;-4.274;2022-12-11T07:42:53;1.90;99.90
70269;DHT22;58514;48.398;-4.274;2022-12-11T07:45:18;1.90;99.90
70269;DHT22;58514;48.398;-4.274;2022-12-11T07:47:44;1.90;99.90
70269;DHT22;58514;48.398;-4.274;2022-12-11T07:50:09;1.80;99.90
70269;DHT22;58514;48.398;-4.274;2022-12-11T07:52:35;1.80;99.90
70269;DHT22;58514;48.398;-4.274;2022-12-11T07:55:01;1.80;99.90
70269;DHT22;58514;48.398;-4.274;2022-12-11T07:57:26;1.80;99.90
70269;DHT22;58514;48.398;-4.274;2022-12-11T07:59:52;1.80;99.90
70269;DHT22;58514;48.398;-4.274;2022-12-11T08:02:18;1.70;99.90
70269;DHT22;58514;48.398;-4.274;2022-12-11T08:04:43;1.70;99.90
70269;DHT22;58514;48.398;-4.274;2022-12-11T08:07:09;1.60;99.90
70269;DHT22;58514;48.398;-4.274;2022-12-11T08:09:35;1.60;99.90
70269;DHT22;58514;48.398;-4.274;2022-12-11T08:12:02;1.60;99.90
70269;DHT22;58514;48.398;-4.274;2022-12-11T08:14:28;1.60;99.90
70269;DHT22;58514;48.398;-4.274;2022-12-11T08:16:53;1.60;99.90
70269;DHT22;58514;48.398;-4.274;2022-12-11T08:19:19;1.60;99.90
70269;DHT22;58514;48.398;-4.274;2022-12-11T08:21:45;1.50;99.90
70269;DHT22;58514;48.398;-4.274;2022-12-11T08:24:11;1.60;99.90
70269;DHT22;58514;48.398;-4.274;2022-12-11T08:26:36;1.60;99.90
70269;DHT22;58514;48.398;-4.274;2022-12-11T08:29:02;1.60;99.90
70269;DHT22;58514;48.398;-4.274;2022-12-11T08:31:28;1.60;99.90
70269;DHT22;58514;48.398;-4.274;2022-12-11T08:33:54;1.60;99.90
70269;DHT22;58514;48.398;-4.274;2022-12-11T08:36:20;1.70;99.90
70269;DHT22;58514;48.398;-4.274;2022-12-11T08:38:46;1.70;99.90
70269;DHT22;58514;48.398;-4.274;2022-12-11T08:41:13;1.80;99.90
70269;DHT22;58514;48.398;-4.274;2022-12-11T08:43:39;1.90;99.90
70269;DHT22;58514;48.398;-4.274;2022-12-11T08:46:05;1.90;99.90
70269;DHT22;58514;48.398;-4.274;2022-12-11T08:48:32;1.90;99.90
70269;DHT22;58514;48.398;-4.274;2022-12-11T08:50:58;2.00;99.90
70269;DHT22;58514;48.398;-4.274;2022-12-11T08:53:24;2.00;99.90
70269;DHT22;58514;48.398;-4.274;2022-12-11T08:55:50;2.10;99.90
70269;DHT22;58514;48.398;-4.274;2022-12-11T08:58:15;2.10;99.90
70269;DHT22;58514;48.398;-4.274;2022-12-11T09:00:41;2.10;99.90
70269;DHT22;58514;48.398;-4.274;2022-12-11T09:03:07;2.10;99.90
70269;DHT22;58514;48.398;-4.274;2022-12-11T09:05:33;2.10;99.90
70269;DHT22;58514;48.398;-4.274;2022-12-11T09:07:58;2.10;99.90
70269;DHT22;58514;48.398;-4.274;2022-12-11T09:10:24;2.10;99.90
70269;DHT22;58514;48.398;-4.274;2022-12-11T09:12:49;2.10;99.90
70269;DHT22;58514;48.398;-4.274;2022-12-11T09:15:15;2.20;99.90
70269;DHT22;58514;48.398;-4.274;2022-12-11T09:17:41;2.20;99.90
70269;DHT22;58514;48.398;-4.274;2022-12-11T09:20:06;2.30;99.90
70269;DHT22;58514;48.398;-4.274;2022-12-11T09:22:32;2.30;99.90
70269;DHT22;58514;48.398;-4.274;2022-12-11T09:24:58;2.30;99.90
70269;DHT22;58514;48.398;-4.274;2022-12-11T09:27:24;2.30;99.90
70269;DHT22;58514;48.398;-4.274;2022-12-11T09:29:49;2.40;99.90
70269;DHT22;58514;48.398;-4.274;2022-12-11T09:32:15;2.40;99.90
70269;DHT22;58514;48.398;-4.274;2022-12-11T09:34:41;2.40;99.90
70269;DHT22;58514;48.398;-4.274;2022-12-11T09:37:07;2.40;99.90
70269;DHT22;58514;48.398;-4.274;2022-12-11T09:39:32;2.40;99.90
70269;DHT22;58514;48.398;-4.274;2022-12-11T09:42:44;2.40;99.90
70269;DHT22;58514;48.398;-4.274;2022-12-11T09:44:45;2.40;99.90
70269;DHT22;58514;48.398;-4.274;2022-12-11T09:47:14;2.40;99.90
70269;DHT22;58514;48.398;-4.274;2022-12-11T09:49:41;2.40;99.90
70269;DHT22;58514;48.398;-4.274;2022-12-11T09:52:12;2.40;99.90
70269;DHT22;58514;48.398;-4.274;2022-12-11T09:54:49;2.50;99.90
70269;DHT22;58514;48.398;-4.274;2022-12-11T10:07:57;2.70;99.90
70269;DHT22;58514;48.398;-4.274;2022-12-11T10:10:40;2.70;99.90
70269;DHT22;58514;48.398;-4.274;2022-12-11T10:13:14;2.80;99.90
70269;DHT22;58514;48.398;-4.274;2022-12-11T10:18:10;3.00;99.90
70269;DHT22;58514;48.398;-4.274;2022-12-11T10:20:37;3.00;99.90
70269;DHT22;58514;48.398;-4.274;2022-12-11T10:23:08;3.10;99.90
70269;DHT22;58514;48.398;-4.274;2022-12-11T10:25:41;3.20;99.90
70269;DHT22;58514;48.398;-4.274;2022-12-11T10:28:12;3.30;99.90
70269;DHT22;58514;48.398;-4.274;2022-12-11T10:30:40;3.40;99.90
70269;DHT22;58514;48.398;-4.274;2022-12-11T10:35:52;3.60;99.90
70269;DHT22;58514;48.398;-4.274;2022-12-11T10:40:46;3.70;99.90
70269;DHT22;58514;48.398;-4.274;2022-12-11T10:43:11;3.80;99.90
70269;DHT22;58514;48.398;-4.274;2022-12-11T10:45:37;3.80;99.90
70269;DHT22;58514;48.398;-4.274;2022-12-11T10:48:04;3.80;99.90
70269;DHT22;58514;48.398;-4.274;2022-12-11T10:50:30;3.90;99.90
70269;DHT22;58514;48.398;-4.274;2022-12-11T10:52:55;3.90;99.90
70269;DHT22;58514;48.398;-4.274;2022-12-11T10:55:29;3.90;99.90
70269;DHT22;58514;48.398;-4.274;2022-12-11T10:57:58;4.00;99.90
70269;DHT22;58514;48.398;-4.274;2022-12-11T11:02:56;4.00;99.90
70269;DHT22;58514;48.398;-4.274;2022-12-11T11:08:16;4.00;99.90
70269;DHT22;58514;48.398;-4.274;2022-12-11T11:11:48;4.00;99.90
70269;DHT22;58514;48.398;-4.274;2022-12-11T11:13:34;4.00;99.90
70269;DHT22;58514;48.398;-4.274;2022-12-11T11:16:04;4.00;99.90
70269;DHT22;58514;48.398;-4.274;2022-12-11T11:18:31;3.90;99.90
70269;DHT22;58514;48.398;-4.274;2022-12-11T11:20:57;3.90;99.90
70269;DHT22;58514;48.398;-4.274;2022-12-11T11:23:23;3.90;99.90
70269;DHT22;58514;48.398;-4.274;2022-12-11T11:25:50;3.90;99.90
70269;DHT22;58514;48.398;-4.274;2022-12-11T11:28:17;3.90;99.90
70269;DHT22;58514;48.398;-4.274;2022-12-11T11:30:53;3.90;99.90
70269;DHT22;58514;48.398;-4.274;2022-12-11T11:33:21;3.90;99.90
70269;DHT22;58514;48.398;-4.274;2022-12-11T11:36:05;3.90;99.90
70269;DHT22;58514;48.398;-4.274;2022-12-11T11:38:36;3.90;99.90
70269;DHT22;58514;48.398;-4.274;2022-12-11T11:41:07;3.80;99.90
70269;DHT22;58514;48.398;-4.274;2022-12-11T11:43:50;3.80;99.90
70269;DHT22;58514;48.398;-4.274;2022-12-11T11:46:20;3.80;99.90
70269;DHT22;58514;48.398;-4.274;2022-12-11T11:53:51;3.80;99.90
70269;DHT22;58514;48.398;-4.274;2022-12-11T11:58:56;3.90;99.90
70269;DHT22;58514;48.398;-4.274;2022-12-11T12:01:25;3.90;99.90
70269;DHT22;58514;48.398;-4.274;2022-12-11T12:03:51;3.90;99.90
70269;DHT22;58514;48.398;-4.274;2022-12-11T12:16:22;4.10;99.90
70269;DHT22;58514;48.398;-4.274;2022-12-11T12:21:34;4.20;99.90
70269;DHT22;58514;48.398;-4.274;2022-12-11T12:26:30;4.20;99.90
70269;DHT22;58514;48.398;-4.274;2022-12-11T12:31:38;4.20;99.90
70269;DHT22;58514;48.398;-4.274;2022-12-11T12:44:24;4.40;99.90
70269;DHT22;58514;48.398;-4.274;2022-12-11T12:49:33;4.60;99.90
70269;DHT22;58514;48.398;-4.274;2022-12-11T12:51:59;4.60;99.90
70269;DHT22;58514;48.398;-4.274;2022-12-11T12:54:26;4.60;99.90
70269;DHT22;58514;48.398;-4.274;2022-12-11T12:56:52;4.70;99.90
70269;DHT22;58514;48.398;-4.274;2022-12-11T12:59:19;4.70;99.90
70269;DHT22;58514;48.398;-4.274;2022-12-11T13:01:45;4.70;99.90
70269;DHT22;58514;48.398;-4.274;2022-12-11T13:04:21;4.70;99.90
70269;DHT22;58514;48.398;-4.274;2022-12-11T13:06:48;4.70;99.90
70269;DHT22;58514;48.398;-4.274;2022-12-11T13:09:21;4.70;99.90
70269;DHT22;58514;48.398;-4.274;2022-12-11T13:11:49;4.70;99.90
70269;DHT22;58514;48.398;-4.274;2022-12-11T13:16:46;4.80;99.90
70269;DHT22;58514;48.398;-4.274;2022-12-11T13:26:45;4.90;99.90
70269;DHT22;58514;48.398;-4.274;2022-12-11T13:29:31;4.90;99.90
70269;DHT22;58514;48.398;-4.274;2022-12-11T13:31:59;4.90;99.90
70269;DHT22;58514;48.398;-4.274;2022-12-11T13:34:26;4.90;99.90
70269;DHT22;58514;48.398;-4.274;2022-12-11T13:36:52;4.90;99.90
70269;DHT22;58514;48.398;-4.274;2022-12-11T13:39:21;5.00;99.90
70269;DHT22;58514;48.398;-4.274;2022-12-11T13:41:50;5.00;99.90
70269;DHT22;58514;48.398;-4.274;2022-12-11T13:44:26;5.00;99.90
70269;DHT22;58514;48.398;-4.274;2022-12-11T13:46:53;5.10;99.90
70269;DHT22;58514;48.398;-4.274;2022-12-11T13:49:21;5.10;99.90
70269;DHT22;58514;48.398;-4.274;2022-12-11T13:51:53;5.10;99.90
70269;DHT22;58514;48.398;-4.274;2022-12-11T13:54:19;5.10;99.90
70269;DHT22;58514;48.398;-4.274;2022-12-11T13:59:23;5.20;99.90
70269;DHT22;58514;48.398;-4.274;2022-12-11T14:01:49;5.20;99.90
70269;DHT22;58514;48.398;-4.274;2022-12-11T14:04:18;5.20;99.90
70269;DHT22;58514;48.398;-4.274;2022-12-11T14:06:44;5.20;99.90
70269;DHT22;58514;48.398;-4.274;2022-12-11T14:09:13;5.10;99.90
70269;DHT22;58514;48.398;-4.274;2022-12-11T14:11:40;5.10;99.90
70269;DHT22;58514;48.398;-4.274;2022-12-11T14:16:48;5.10;99.90
70269;DHT22;58514;48.398;-4.274;2022-12-11T14:19:15;5.00;99.90
70269;DHT22;58514;48.398;-4.274;2022-12-11T14:21:42;5.00;99.90
70269;DHT22;58514;48.398;-4.274;2022-12-11T14:24:11;4.90;99.90
70269;DHT22;58514;48.398;-4.274;2022-12-11T14:26:37;5.00;99.90
70269;DHT22;58514;48.398;-4.274;2022-12-11T14:29:03;4.90;99.90
70269;DHT22;58514;48.398;-4.274;2022-12-11T14:34:05;4.90;99.90
70269;DHT22;58514;48.398;-4.274;2022-12-11T14:36:32;4.90;99.90
70269;DHT22;58514;48.398;-4.274;2022-12-11T14:39:03;4.90;99.90
70269;DHT22;58514;48.398;-4.274;2022-12-11T14:41:45;4.90;99.90
70269;DHT22;58514;48.398;-4.274;2022-12-11T14:44:13;4.90;99.90
70269;DHT22;58514;48.398;-4.274;2022-12-11T14:46:42;5.00;99.90
70269;DHT22;58514;48.398;-4.274;2022-12-11T14:51:54;5.00;99.90
70269;DHT22;58514;48.398;-4.274;2022-12-11T14:54:28;5.00;99.90
70269;DHT22;58514;48.398;-4.274;2022-12-11T14:56:55;5.00;99.90
70269;DHT22;58514;48.398;-4.274;2022-12-11T14:59:22;5.00;99.90
70269;DHT22;58514;48.398;-4.274;2022-12-11T15:01:59;5.10;99.90
70269;DHT22;58514;48.398;-4.274;2022-12-11T15:04:29;5.00;99.90
70269;DHT22;58514;48.398;-4.274;2022-12-11T15:06:55;5.00;99.90
70269;DHT22;58514;48.398;-4.274;2022-12-11T15:12:11;4.90;99.90
70269;DHT22;58514;48.398;-4.274;2022-12-11T15:14:42;4.90;99.90
70269;DHT22;58514;48.398;-4.274;2022-12-11T15:17:11;4.90;99.90
70269;DHT22;58514;48.398;-4.274;2022-12-11T15:19:37;4.90;99.90
70269;DHT22;58514;48.398;-4.274;2022-12-11T15:22:04;4.90;99.90
70269;DHT22;58514;48.398;-4.274;2022-12-11T15:24:35;4.90;99.90
70269;DHT22;58514;48.398;-4.274;2022-12-11T15:27:02;4.90;99.90
70269;DHT22;58514;48.398;-4.274;2022-12-11T15:32:15;4.80;99.90
70269;DHT22;58514;48.398;-4.274;2022-12-11T15:34:48;4.80;99.90
70269;DHT22;58514;48.398;-4.274;2022-12-11T15:37:22;4.80;99.90
70269;DHT22;58514;48.398;-4.274;2022-12-11T15:39:48;4.80;99.90
70269;DHT22;58514;48.398;-4.274;2022-12-11T15:42:14;4.80;99.90
70269;DHT22;58514;48.398;-4.274;2022-12-11T15:44:40;4.80;99.90
70269;DHT22;58514;48.398;-4.274;2022-12-11T15:47:17;4.80;99.90
70269;DHT22;58514;48.398;-4.274;2022-12-11T15:49:45;4.80;99.90
70269;DHT22;58514;48.398;-4.274;2022-12-11T15:52:10;4.80;99.90
70269;DHT22;58514;48.398;-4.274;2022-12-11T15:54:36;4.80;99.90
70269;DHT22;58514;48.398;-4.274;2022-12-11T15:57:03;4.70;99.90
70269;DHT22;58514;48.398;-4.274;2022-12-11T15:59:29;4.70;99.90
70269;DHT22;58514;48.398;-4.274;2022-12-11T16:01:54;4.70;99.90
70269;DHT22;58514;48.398;-4.274;2022-12-11T16:04:20;4.70;99.90
70269;DHT22;58514;48.398;-4.274;2022-12-11T16:06:46;4.70;99.90
70269;DHT22;58514;48.398;-4.274;2022-12-11T16:09:11;4.60;99.90
70269;DHT22;58514;48.398;-4.274;2022-12-11T16:11:37;4.60;99.90
70269;DHT22;58514;48.398;-4.274;2022-12-11T16:14:02;4.60;99.90
70269;DHT22;58514;48.398;-4.274;2022-12-11T16:16:29;4.60;99.90
70269;DHT22;58514;48.398;-4.274;2022-12-11T16:18:54;4.60;99.90
70269;DHT22;58514;48.398;-4.274;2022-12-11T16:21:20;4.50;99.90
70269;DHT22;58514;48.398;-4.274;2022-12-11T16:23:45;4.50;99.90
70269;DHT22;58514;48.398;-4.274;2022-12-11T16:26:11;4.50;99.90
70269;DHT22;58514;48.398;-4.274;2022-12-11T16:28:38;4.50;99.90
70269;DHT22;58514;48.398;-4.274;2022-12-11T16:31:08;4.50;99.90
70269;DHT22;58514;48.398;-4.274;2022-12-11T16:33:34;4.50;99.90
70269;DHT22;58514;48.398;-4.274;2022-12-11T16:35:59;4.50;99.90
70269;DHT22;58514;48.398;-4.274;2022-12-11T16:38:25;4.50;99.90
70269;DHT22;58514;48.398;-4.274;2022-12-11T16:41:00;4.60;99.90
70269;DHT22;58514;48.398;-4.274;2022-12-11T16:43:26;4.50;99.90
70269;DHT22;58514;48.398;-4.274;2022-12-11T16:45:54;4.60;99.90
70269;DHT22;58514;48.398;-4.274;2022-12-11T16:48:20;4.60;99.90
70269;DHT22;58514;48.398;-4.274;2022-12-11T16:50:46;4.60;99.90
70269;DHT22;58514;48.398;-4.274;2022-12-11T16:53:11;4.60;99.90
70269;DHT22;58514;48.398;-4.274;2022-12-11T16:55:39;4.60;99.90
70269;DHT22;58514;48.398;-4.274;2022-12-11T16:58:04;4.60;99.90
70269;DHT22;58514;48.398;-4.274;2022-12-11T17:00:30;4.60;99.90
70269;DHT22;58514;48.398;-4.274;2022-12-11T17:02:55;4.60;99.90
70269;DHT22;58514;48.398;-4.274;2022-12-11T17:05:21;4.60;99.90
70269;DHT22;58514;48.398;-4.274;2022-12-11T17:07:47;4.60;99.90
70269;DHT22;58514;48.398;-4.274;2022-12-11T17:10:13;4.50;99.90